createdAt,value
2023-03-22T00:00:59.516Z,1017.36
2023-03-22T00:01:59.520Z,1017.38
2023-03-22T00:02:59.580Z,1017.34
2023-03-22T00:03:59.558Z,1017.32
2023-03-22T00:04:59.516Z,1017.36
2023-03-22T00:05:59.513Z,1017.36
2023-03-22T00:06:59.512Z,1017.32
2023-03-22T00:07:59.545Z,1017.32
2023-03-22T00:08:59.523Z,1017.27
2023-03-22T00:09:59.510Z,1017.29
2023-03-22T00:10:59.518Z,1017.26
2023-03-22T00:11:59.528Z,1017.31
2023-03-22T00:12:59.538Z,1017.35
2023-03-22T00:13:59.525Z,1017.25
2023-03-22T00:14:59.511Z,1017.24
2023-03-22T00:15:59.560Z,1017.3
2023-03-22T00:16:59.518Z,1017.27
2023-03-22T00:17:59.532Z,1017.29
2023-03-22T00:18:59.519Z,1017.27
2023-03-22T00:19:59.515Z,1017.22
2023-03-22T00:20:59.517Z,1017.21
2023-03-22T00:21:59.516Z,1017.22
2023-03-22T00:22:59.531Z,1017.2
2023-03-22T00:23:59.525Z,1017.22
2023-03-22T00:24:59.519Z,1017.18
2023-03-22T00:25:59.532Z,1017.15
2023-03-22T00:26:59.530Z,1017.06
2023-03-22T00:27:59.525Z,1017.11
2023-03-22T00:28:59.517Z,1017.05
2023-03-22T00:29:59.532Z,1016.98
2023-03-22T00:30:59.515Z,1017
2023-03-22T00:31:59.512Z,1017.01
2023-03-22T00:32:59.542Z,1016.98
2023-03-22T00:33:59.558Z,1016.96
2023-03-22T00:34:59.519Z,1016.97
2023-03-22T00:35:59.525Z,1016.99
2023-03-22T00:36:59.512Z,1017.01
2023-03-22T00:37:59.520Z,1017
2023-03-22T00:38:59.519Z,1017
2023-03-22T00:39:59.518Z,1017
2023-03-22T00:40:59.511Z,1017.03
2023-03-22T00:41:59.531Z,1017.01
2023-03-22T00:42:59.534Z,1016.99
2023-03-22T00:43:59.513Z,1016.99
2023-03-22T00:44:59.514Z,1016.95
2023-03-22T00:45:59.569Z,1016.93
2023-03-22T00:46:59.510Z,1016.95
2023-03-22T00:47:59.605Z,1016.91
2023-03-22T00:48:59.507Z,1016.97
2023-03-22T00:49:59.517Z,1016.98
2023-03-22T00:50:59.524Z,1016.95
2023-03-22T00:51:59.515Z,1016.97
2023-03-22T00:52:59.526Z,1017
2023-03-22T00:53:59.523Z,1016.98
2023-03-22T00:54:59.513Z,1016.99
2023-03-22T00:55:59.532Z,1016.98
2023-03-22T00:56:59.532Z,1016.96
2023-03-22T00:57:59.526Z,1016.99
2023-03-22T00:58:59.517Z,1017
2023-03-22T00:59:59.513Z,1017
2023-03-22T01:00:59.558Z,1017.06
2023-03-22T01:01:59.512Z,1017.05
2023-03-22T01:02:59.529Z,1017.08
2023-03-22T01:03:59.594Z,1017.1
2023-03-22T01:04:59.504Z,1017.07
2023-03-22T01:05:59.512Z,1017.07
2023-03-22T01:06:59.519Z,1017.11
2023-03-22T01:07:59.523Z,1017.11
2023-03-22T01:08:59.512Z,1017.09
2023-03-22T01:09:59.513Z,1017.07
2023-03-22T01:10:59.511Z,1017.08
2023-03-22T01:11:59.518Z,1017.07
2023-03-22T01:12:59.513Z,1017.1
2023-03-22T01:13:59.516Z,1017.08
2023-03-22T01:14:59.506Z,1017.12
2023-03-22T01:15:59.506Z,1017.12
2023-03-22T01:16:59.606Z,1017.09
2023-03-22T01:17:59.525Z,1017.05
2023-03-22T01:18:59.503Z,1017.08
2023-03-22T01:19:59.514Z,1017.07
2023-03-22T01:20:59.510Z,1017.09
2023-03-22T01:21:59.512Z,1017.06
2023-03-22T01:22:59.557Z,1017.02
2023-03-22T01:23:59.506Z,1017.03
2023-03-22T01:24:59.513Z,1017.02
2023-03-22T01:25:59.516Z,1017.06
2023-03-22T01:26:59.513Z,1017.02
2023-03-22T01:27:59.546Z,1017.02
2023-03-22T01:28:59.502Z,1017.06
2023-03-22T01:29:59.504Z,1016.98
2023-03-22T01:30:59.521Z,1016.98
2023-03-22T01:31:59.507Z,1016.91
2023-03-22T01:32:59.522Z,1016.9
2023-03-22T01:33:59.508Z,1016.9
2023-03-22T01:34:59.513Z,1016.88
2023-03-22T01:35:59.538Z,1016.88
2023-03-22T01:36:59.514Z,1016.86
2023-03-22T01:37:59.527Z,1016.85
2023-03-22T01:38:59.513Z,1016.8
2023-03-22T01:39:59.511Z,1016.82
2023-03-22T01:40:59.503Z,1016.79
2023-03-22T01:41:59.542Z,1016.79
2023-03-22T01:42:59.522Z,1016.78
2023-03-22T01:43:59.506Z,1016.76
2023-03-22T01:44:59.514Z,1016.78
2023-03-22T01:45:59.552Z,1016.74
2023-03-22T01:46:59.524Z,1016.75
2023-03-22T01:47:59.595Z,1016.78
2023-03-22T01:48:59.536Z,1016.78
2023-03-22T01:49:59.511Z,1016.78
2023-03-22T01:50:59.515Z,1016.74
2023-03-22T01:51:59.515Z,1016.74
2023-03-22T01:52:59.523Z,1016.72
2023-03-22T01:53:59.518Z,1016.69
2023-03-22T01:54:59.515Z,1016.68
2023-03-22T01:55:59.510Z,1016.7
2023-03-22T01:56:59.530Z,1016.68
2023-03-22T01:57:59.526Z,1016.7
2023-03-22T01:58:59.525Z,1016.72
2023-03-22T01:59:59.503Z,1016.72
2023-03-22T02:00:59.517Z,1016.74
2023-03-22T02:01:59.508Z,1016.75
2023-03-22T02:02:59.577Z,1016.78
2023-03-22T02:03:59.502Z,1016.76
2023-03-22T02:04:59.516Z,1016.85
2023-03-22T02:05:59.521Z,1016.89
2023-03-22T02:06:59.512Z,1016.79
2023-03-22T02:07:59.527Z,1016.79
2023-03-22T02:08:59.536Z,1016.79
2023-03-22T02:09:59.520Z,1016.83
2023-03-22T02:10:59.524Z,1016.79
2023-03-22T02:11:59.528Z,1016.77
2023-03-22T02:12:59.531Z,1016.76
2023-03-22T02:13:59.508Z,1016.83
2023-03-22T02:14:59.509Z,1016.84
2023-03-22T02:15:59.604Z,1016.76
2023-03-22T02:16:59.513Z,1016.8
2023-03-22T02:17:59.530Z,1016.7
2023-03-22T02:18:59.522Z,1016.67
2023-03-22T02:19:59.512Z,1016.62
2023-03-22T02:21:01.886Z,1016.59
2023-03-22T02:21:59.511Z,1016.57
2023-03-22T02:22:59.539Z,1016.56
2023-03-22T02:23:59.506Z,1016.56
2023-03-22T02:24:59.519Z,1016.52
2023-03-22T02:25:59.511Z,1016.51
2023-03-22T02:26:59.583Z,1016.59
2023-03-22T02:27:59.527Z,1016.56
2023-03-22T02:28:59.510Z,1016.61
2023-03-22T02:29:59.498Z,1016.62
2023-03-22T02:30:59.549Z,1016.62
2023-03-22T02:31:59.515Z,1016.67
2023-03-22T02:32:59.552Z,1016.63
2023-03-22T02:33:59.523Z,1016.6
2023-03-22T02:34:59.520Z,1016.55
2023-03-22T02:35:59.509Z,1016.54
2023-03-22T02:36:59.504Z,1016.52
2023-03-22T02:37:59.523Z,1016.5
2023-03-22T02:38:59.516Z,1016.45
2023-03-22T02:39:59.500Z,1016.47
2023-03-22T02:40:59.509Z,1016.46
2023-03-22T02:41:59.514Z,1016.42
2023-03-22T02:42:59.518Z,1016.43
2023-03-22T02:43:59.505Z,1016.43
2023-03-22T02:44:59.512Z,1016.44
2023-03-22T02:45:59.489Z,1016.43
2023-03-22T02:46:59.532Z,1016.43
2023-03-22T02:47:59.614Z,1016.39
2023-03-22T02:48:59.507Z,1016.37
2023-03-22T02:49:59.504Z,1016.36
2023-03-22T02:50:59.499Z,1016.32
2023-03-22T02:51:59.506Z,1016.3
2023-03-22T02:52:59.514Z,1016.25
2023-03-22T02:53:59.497Z,1016.22
2023-03-22T02:54:59.496Z,1016.2
2023-03-22T02:55:59.521Z,1016.16
2023-03-22T02:56:59.513Z,1016.13
2023-03-22T02:57:59.515Z,1016.19
2023-03-22T02:58:59.516Z,1016.25
2023-03-22T02:59:59.503Z,1016.25
2023-03-22T03:00:59.591Z,1016.25
2023-03-22T03:01:59.561Z,1016.28
2023-03-22T03:02:59.517Z,1016.32
2023-03-22T03:03:59.504Z,1016.36
2023-03-22T03:04:59.504Z,1016.33
2023-03-22T03:05:59.497Z,1016.33
2023-03-22T03:06:59.497Z,1016.33
2023-03-22T03:07:59.526Z,1016.33
2023-03-22T03:08:59.495Z,1016.37
2023-03-22T03:09:59.501Z,1016.38
2023-03-22T03:10:59.486Z,1016.38
2023-03-22T03:11:59.508Z,1016.37
2023-03-22T03:12:59.510Z,1016.33
2023-03-22T03:13:59.505Z,1016.32
2023-03-22T03:14:59.489Z,1016.31
2023-03-22T03:15:59.554Z,1016.33
2023-03-22T03:16:59.511Z,1016.3
2023-03-22T03:17:59.501Z,1016.35
2023-03-22T03:18:59.505Z,1016.3
2023-03-22T03:19:59.489Z,1016.35
2023-03-22T03:20:59.505Z,1016.33
2023-03-22T03:21:59.505Z,1016.31
2023-03-22T03:22:59.506Z,1016.31
2023-03-22T03:23:59.502Z,1016.42
2023-03-22T03:24:59.498Z,1016.38
2023-03-22T03:25:59.496Z,1016.38
2023-03-22T03:26:59.522Z,1016.32
2023-03-22T03:27:59.513Z,1016.36
2023-03-22T03:28:59.496Z,1016.37
2023-03-22T03:29:59.500Z,1016.33
2023-03-22T03:30:59.488Z,1016.36
2023-03-22T03:31:59.591Z,1016.36
2023-03-22T03:32:59.523Z,1016.37
2023-03-22T03:33:59.507Z,1016.35
2023-03-22T03:34:59.509Z,1016.35
2023-03-22T03:35:59.507Z,1016.36
2023-03-22T03:36:59.506Z,1016.35
2023-03-22T03:37:59.510Z,1016.35
2023-03-22T03:38:59.515Z,1016.32
2023-03-22T03:39:59.514Z,1016.37
2023-03-22T03:40:59.489Z,1016.33
2023-03-22T03:41:59.525Z,1016.37
2023-03-22T03:42:59.517Z,1016.37
2023-03-22T03:43:59.512Z,1016.41
2023-03-22T03:44:59.509Z,1016.41
2023-03-22T03:45:59.571Z,1016.45
2023-03-22T03:46:59.505Z,1016.48
2023-03-22T03:47:59.573Z,1016.46
2023-03-22T03:48:59.503Z,1016.49
2023-03-22T03:49:59.505Z,1016.48
2023-03-22T03:50:59.504Z,1016.47
2023-03-22T03:51:59.505Z,1016.5
2023-03-22T03:52:59.516Z,1016.51
2023-03-22T03:53:59.507Z,1016.53
2023-03-22T03:54:59.503Z,1016.56
2023-03-22T03:55:59.507Z,1016.51
2023-03-22T03:56:59.515Z,1016.54
2023-03-22T03:57:59.523Z,1016.53
2023-03-22T03:58:59.498Z,1016.56
2023-03-22T03:59:59.507Z,1016.56
2023-03-22T04:00:59.517Z,1016.54
2023-03-22T04:01:59.615Z,1016.55
2023-03-22T04:02:59.528Z,1016.55
2023-03-22T04:03:59.579Z,1016.6
2023-03-22T04:04:59.514Z,1016.59
2023-03-22T04:05:59.503Z,1016.6
2023-03-22T04:06:59.573Z,1016.59
2023-03-22T04:07:59.532Z,1016.59
2023-03-22T04:08:59.496Z,1016.57
2023-03-22T04:09:59.504Z,1016.51
2023-03-22T04:10:59.505Z,1016.49
2023-03-22T04:11:59.523Z,1016.48
2023-03-22T04:12:59.514Z,1016.49
2023-03-22T04:13:59.510Z,1016.52
2023-03-22T04:14:59.512Z,1016.53
2023-03-22T04:15:59.503Z,1016.48
2023-03-22T04:16:59.552Z,1016.45
2023-03-22T04:17:59.520Z,1016.47
2023-03-22T04:18:59.504Z,1016.45
2023-03-22T04:19:59.503Z,1016.44
2023-03-22T04:20:59.523Z,1016.48
2023-03-22T04:21:59.505Z,1016.51
2023-03-22T04:22:59.522Z,1016.48
2023-03-22T04:23:59.498Z,1016.52
2023-03-22T04:24:59.502Z,1016.55
2023-03-22T04:25:59.510Z,1016.6
2023-03-22T04:26:59.527Z,1016.59
2023-03-22T04:27:59.507Z,1016.57
2023-03-22T04:28:59.522Z,1016.64
2023-03-22T04:29:59.529Z,1016.62
2023-03-22T04:30:59.537Z,1016.6
2023-03-22T04:31:59.512Z,1016.59
2023-03-22T04:32:59.519Z,1016.57
2023-03-22T04:33:59.500Z,1016.57
2023-03-22T04:34:59.509Z,1016.59
2023-03-22T04:35:59.511Z,1016.54
2023-03-22T04:36:59.492Z,1016.6
2023-03-22T04:37:59.520Z,1016.51
2023-03-22T04:38:59.504Z,1016.53
2023-03-22T04:39:59.504Z,1016.52
2023-03-22T04:40:59.488Z,1016.52
2023-03-22T04:41:59.521Z,1016.51
2023-03-22T04:42:59.513Z,1016.49
2023-03-22T04:43:59.507Z,1016.52
2023-03-22T04:44:59.505Z,1016.54
2023-03-22T04:45:59.505Z,1016.51
2023-03-22T04:46:59.503Z,1016.51
2023-03-22T04:47:59.543Z,1016.52
2023-03-22T04:48:59.491Z,1016.45
2023-03-22T04:49:59.508Z,1016.43
2023-03-22T04:50:59.518Z,1016.47
2023-03-22T04:51:59.504Z,1016.46
2023-03-22T04:52:59.523Z,1016.42
2023-03-22T04:53:59.502Z,1016.43
2023-03-22T04:54:59.505Z,1016.41
2023-03-22T04:55:59.510Z,1016.43
2023-03-22T04:56:59.519Z,1016.42
2023-03-22T04:57:59.519Z,1016.42
2023-03-22T04:58:59.529Z,1016.42
2023-03-22T04:59:59.515Z,1016.46
2023-03-22T05:00:59.496Z,1016.44
2023-03-22T05:01:59.547Z,1016.49
2023-03-22T05:02:59.595Z,1016.52
2023-03-22T05:03:59.507Z,1016.51
2023-03-22T05:04:59.510Z,1016.49
2023-03-22T05:05:59.513Z,1016.54
2023-03-22T05:06:59.505Z,1016.51
2023-03-22T05:07:59.515Z,1016.51
2023-03-22T05:08:59.506Z,1016.54
2023-03-22T05:09:59.494Z,1016.56
2023-03-22T05:10:59.501Z,1016.5
2023-03-22T05:11:59.518Z,1016.56
2023-03-22T05:12:59.508Z,1016.56
2023-03-22T05:13:59.499Z,1016.55
2023-03-22T05:14:59.506Z,1016.55
2023-03-22T05:15:59.557Z,1016.57
2023-03-22T05:16:59.500Z,1016.57
2023-03-22T05:17:59.527Z,1016.57
2023-03-22T05:18:59.504Z,1016.62
2023-03-22T05:19:59.506Z,1016.59
2023-03-22T05:20:59.495Z,1016.54
2023-03-22T05:21:59.510Z,1016.53
2023-03-22T05:22:59.529Z,1016.53
2023-03-22T05:23:59.506Z,1016.56
2023-03-22T05:24:59.487Z,1016.59
2023-03-22T05:25:59.515Z,1016.57
2023-03-22T05:26:59.518Z,1016.59
2023-03-22T05:27:59.520Z,1016.59
2023-03-22T05:28:59.518Z,1016.56
2023-03-22T05:29:59.510Z,1016.56
2023-03-22T05:30:59.502Z,1016.56
2023-03-22T05:31:59.517Z,1016.53
2023-03-22T05:32:59.513Z,1016.55
2023-03-22T05:33:59.507Z,1016.48
2023-03-22T05:34:59.508Z,1016.49
2023-03-22T05:35:59.563Z,1016.48
2023-03-22T05:36:59.518Z,1016.45
2023-03-22T05:37:59.517Z,1016.44
2023-03-22T05:38:59.514Z,1016.42
2023-03-22T05:39:59.507Z,1016.42
2023-03-22T05:40:59.508Z,1016.36
2023-03-22T05:41:59.520Z,1016.35
2023-03-22T05:42:59.517Z,1016.33
2023-03-22T05:43:59.509Z,1016.39
2023-03-22T05:44:59.512Z,1016.29
2023-03-22T05:45:59.500Z,1016.32
2023-03-22T05:46:59.584Z,1016.35
2023-03-22T05:47:59.608Z,1016.37
2023-03-22T05:48:59.507Z,1016.38
2023-03-22T05:49:59.517Z,1016.35
2023-03-22T05:50:59.518Z,1016.33
2023-03-22T05:51:59.508Z,1016.32
2023-03-22T05:52:59.533Z,1016.42
2023-03-22T05:53:59.513Z,1016.41
2023-03-22T05:54:59.507Z,1016.41
2023-03-22T05:55:59.513Z,1016.4
2023-03-22T05:56:59.526Z,1016.39
2023-03-22T05:57:59.517Z,1016.44
2023-03-22T05:58:59.502Z,1016.45
2023-03-22T05:59:59.510Z,1016.46
2023-03-22T06:00:59.509Z,1016.45
2023-03-22T06:01:59.544Z,1016.45
2023-03-22T06:02:59.604Z,1016.49
2023-03-22T06:03:59.517Z,1016.52
2023-03-22T06:04:59.522Z,1016.44
2023-03-22T06:05:59.533Z,1016.45
2023-03-22T06:06:59.513Z,1016.45
2023-03-22T06:07:59.553Z,1016.45
2023-03-22T06:09:10.670Z,1016.41
2023-03-22T06:09:59.509Z,1016.46
2023-03-22T06:10:59.509Z,1016.42
2023-03-22T06:11:59.517Z,1016.4
2023-03-22T06:12:59.596Z,1016.42
2023-03-22T06:13:59.517Z,1016.42
2023-03-22T06:14:59.521Z,1016.4
2023-03-22T06:15:59.515Z,1016.4
2023-03-22T06:16:59.513Z,1016.44
2023-03-22T06:17:59.534Z,1016.42
2023-03-22T06:18:59.514Z,1016.36
2023-03-22T06:19:59.519Z,1016.38
2023-03-22T06:20:59.532Z,1016.39
2023-03-22T06:21:59.519Z,1016.33
2023-03-22T06:22:59.520Z,1016.36
2023-03-22T06:23:59.640Z,1016.38
2023-03-22T06:24:59.510Z,1016.35
2023-03-22T06:25:59.515Z,1016.43
2023-03-22T06:26:59.523Z,1016.4
2023-03-22T06:27:59.517Z,1016.39
2023-03-22T06:28:59.612Z,1016.39
2023-03-22T06:29:59.513Z,1016.32
2023-03-22T06:30:59.581Z,1016.32
2023-03-22T06:31:59.513Z,1016.29
2023-03-22T06:32:59.515Z,1016.31
2023-03-22T06:33:59.640Z,1016.32
2023-03-22T06:34:59.526Z,1016.31
2023-03-22T06:35:59.519Z,1016.26
2023-03-22T06:36:59.504Z,1016.29
2023-03-22T06:37:59.509Z,1016.31
2023-03-22T06:38:59.568Z,1016.3
2023-03-22T06:39:59.512Z,1016.29
2023-03-22T06:40:59.505Z,1016.35
2023-03-22T06:41:59.510Z,1016.37
2023-03-22T06:43:03.542Z,1016.35
2023-03-22T06:43:59.541Z,1016.32
2023-03-22T06:44:59.501Z,1016.37
2023-03-22T06:45:59.560Z,1016.37
2023-03-22T06:46:59.509Z,1016.38
2023-03-22T06:47:59.521Z,1016.36
2023-03-22T06:48:59.501Z,1016.38
2023-03-22T06:49:59.504Z,1016.35
2023-03-22T06:50:59.553Z,1016.39
2023-03-22T06:51:59.492Z,1016.41
2023-03-22T06:52:59.524Z,1016.39
2023-03-22T06:53:59.496Z,1016.4
2023-03-22T06:54:59.528Z,1016.45
2023-03-22T06:55:59.510Z,1016.41
2023-03-22T06:56:59.521Z,1016.4
2023-03-22T06:57:59.514Z,1016.43
2023-03-22T06:58:59.502Z,1016.41
2023-03-22T06:59:59.513Z,1016.41
2023-03-22T07:00:59.590Z,1016.43
2023-03-22T07:01:59.504Z,1016.36
2023-03-22T07:02:59.512Z,1016.3
2023-03-22T07:03:59.585Z,1016.33
2023-03-22T07:04:59.494Z,1016.31
2023-03-22T07:05:59.505Z,1016.42
2023-03-22T07:06:59.502Z,1016.41
2023-03-22T07:07:59.518Z,1016.41
2023-03-22T07:08:59.512Z,1016.38
2023-03-22T07:09:59.497Z,1016.35
2023-03-22T07:10:59.514Z,1016.35
2023-03-22T07:11:59.519Z,1016.29
2023-03-22T07:12:59.514Z,1016.28
2023-03-22T07:13:59.513Z,1016.32
2023-03-22T07:14:59.505Z,1016.38
2023-03-22T07:15:59.578Z,1016.37
2023-03-22T07:16:59.506Z,1016.32
2023-03-22T07:17:59.511Z,1016.29
2023-03-22T07:18:59.510Z,1016.3
2023-03-22T07:19:59.505Z,1016.26
2023-03-22T07:20:59.519Z,1016.26
2023-03-22T07:21:59.499Z,1016.25
2023-03-22T07:22:59.515Z,1016.22
2023-03-22T07:23:59.501Z,1016.22
2023-03-22T07:25:01.666Z,1016.22
2023-03-22T07:25:59.505Z,1016.22
2023-03-22T07:26:59.536Z,1016.23
2023-03-22T07:27:59.518Z,1016.23
2023-03-22T07:28:59.503Z,1016.19
2023-03-22T07:29:59.506Z,1016.18
2023-03-22T07:30:59.498Z,1016.16
2023-03-22T07:31:59.551Z,1016.12
2023-03-22T07:32:59.509Z,1016.16
2023-03-22T07:33:59.502Z,1016.08
2023-03-22T07:34:59.506Z,1016.09
2023-03-22T07:35:59.562Z,1016.06
2023-03-22T07:36:59.500Z,1016.13
2023-03-22T07:37:59.526Z,1016.09
2023-03-22T07:38:59.495Z,1016.02
2023-03-22T07:39:59.510Z,1016.04
2023-03-22T07:40:59.509Z,1016
2023-03-22T07:41:59.515Z,1016.05
2023-03-22T07:42:59.520Z,1016.06
2023-03-22T07:44:14.758Z,1016.01
2023-03-22T07:44:59.511Z,1016
2023-03-22T07:45:59.513Z,1015.99
2023-03-22T07:46:59.829Z,1016.09
2023-03-22T07:47:59.753Z,1016.09
2023-03-22T07:48:59.516Z,1016.03
2023-03-22T07:49:59.510Z,1016
2023-03-22T07:50:59.496Z,1015.95
2023-03-22T07:51:59.515Z,1015.91
2023-03-22T07:52:59.528Z,1015.97
2023-03-22T07:53:59.523Z,1015.92
2023-03-22T07:54:59.510Z,1015.84
2023-03-22T07:55:59.524Z,1015.85
2023-03-22T07:56:59.516Z,1015.81
2023-03-22T07:57:59.516Z,1015.85
2023-03-22T07:58:59.525Z,1015.85
2023-03-22T07:59:59.509Z,1015.86
2023-03-22T08:00:59.522Z,1015.8
2023-03-22T08:01:59.572Z,1015.83
2023-03-22T08:02:59.757Z,1015.87
2023-03-22T08:03:59.522Z,1015.85
2023-03-22T08:04:59.513Z,1015.81
2023-03-22T08:05:59.515Z,1015.91
2023-03-22T08:06:59.502Z,1015.86
2023-03-22T08:07:59.537Z,1015.86
2023-03-22T08:08:59.527Z,1015.89
2023-03-22T08:09:59.511Z,1015.9
2023-03-22T08:10:59.513Z,1015.95
2023-03-22T08:11:59.539Z,1015.9
2023-03-22T08:12:59.512Z,1015.93
2023-03-22T08:13:59.517Z,1015.95
2023-03-22T08:14:59.511Z,1015.93
2023-03-22T08:15:59.569Z,1015.98
2023-03-22T08:16:59.522Z,1015.97
2023-03-22T08:17:59.532Z,1015.99
2023-03-22T08:18:59.508Z,1015.96
2023-03-22T08:19:59.517Z,1015.94
2023-03-22T08:20:59.509Z,1015.95
2023-03-22T08:21:59.510Z,1015.96
2023-03-22T08:22:59.506Z,1015.94
2023-03-22T08:23:59.509Z,1015.99
2023-03-22T08:24:59.535Z,1016.05
2023-03-22T08:25:59.500Z,1015.96
2023-03-22T08:26:59.518Z,1015.98
2023-03-22T08:27:59.520Z,1016.06
2023-03-22T08:28:59.499Z,1015.98
2023-03-22T08:29:59.516Z,1016.05
2023-03-22T08:30:59.509Z,1016.06
2023-03-22T08:31:59.644Z,1016.14
2023-03-22T08:32:59.524Z,1016.01
2023-03-22T08:33:59.509Z,1016.06
2023-03-22T08:34:59.529Z,1016
2023-03-22T08:35:59.608Z,1016.33
2023-03-22T08:36:59.509Z,1016.01
2023-03-22T08:37:59.538Z,1016
2023-03-22T08:38:59.502Z,1016
2023-03-22T08:39:59.664Z,1016.05
2023-03-22T08:40:59.512Z,1015.96
2023-03-22T08:41:59.520Z,1015.96
2023-03-22T08:42:59.531Z,1016.07
2023-03-22T08:43:59.505Z,1015.94
2023-03-22T08:44:59.516Z,1015.9
2023-03-22T08:45:59.605Z,1015.92
2023-03-22T08:47:00.726Z,1015.87
2023-03-22T08:47:59.556Z,1015.89
2023-03-22T08:48:59.512Z,1015.89
2023-03-22T08:49:59.509Z,1015.97
2023-03-22T08:50:59.509Z,1015.85
2023-03-22T08:51:59.507Z,1015.93
2023-03-22T08:52:59.516Z,1015.93
2023-03-22T08:53:59.514Z,1015.85
2023-03-22T08:54:59.499Z,1015.83
2023-03-22T08:55:59.510Z,1015.92
2023-03-22T08:56:59.518Z,1015.89
2023-03-22T08:57:59.531Z,1015.84
2023-03-22T08:58:59.502Z,1015.81
2023-03-22T08:59:59.506Z,1015.73
2023-03-22T09:00:59.631Z,1015.8
2023-03-22T09:01:59.602Z,1015.79
2023-03-22T09:02:59.518Z,1015.76
2023-03-22T09:03:59.536Z,1015.81
2023-03-22T09:04:59.502Z,1015.79
2023-03-22T09:05:59.504Z,1015.79
2023-03-22T09:06:59.510Z,1015.77
2023-03-22T09:08:06.119Z,1015.77
2023-03-22T09:08:59.499Z,1015.84
2023-03-22T09:09:59.519Z,1015.94
2023-03-22T09:10:59.507Z,1015.86
2023-03-22T09:11:59.525Z,1015.91
2023-03-22T09:12:59.509Z,1015.89
2023-03-22T09:13:59.500Z,1015.8
2023-03-22T09:14:59.512Z,1015.9
2023-03-22T09:15:59.532Z,1015.75
2023-03-22T09:16:59.507Z,1015.77
2023-03-22T09:17:59.513Z,1015.74
2023-03-22T09:18:59.514Z,1015.78
2023-03-22T09:20:11.441Z,1015.79
2023-03-22T09:20:59.506Z,1015.86
2023-03-22T09:21:59.499Z,1015.69
2023-03-22T09:22:59.518Z,1015.74
2023-03-22T09:23:59.506Z,1015.81
2023-03-22T09:24:59.513Z,1015.79
2023-03-22T09:25:59.529Z,1015.7
2023-03-22T09:26:59.525Z,1015.69
2023-03-22T09:27:59.519Z,1015.66
2023-03-22T09:28:59.508Z,1015.69
2023-03-22T09:29:59.522Z,1015.7
2023-03-22T09:30:59.537Z,1015.66
2023-03-22T09:31:59.497Z,1015.62
2023-03-22T09:32:59.524Z,1015.63
2023-03-22T09:33:59.496Z,1015.6
2023-03-22T09:34:59.503Z,1015.63
2023-03-22T09:35:59.642Z,1015.58
2023-03-22T09:36:59.498Z,1015.6
2023-03-22T09:37:59.506Z,1015.61
2023-03-22T09:38:59.517Z,1015.61
2023-03-22T09:39:59.496Z,1015.59
2023-03-22T09:40:59.508Z,1015.59
2023-03-22T09:41:59.513Z,1015.57
2023-03-22T09:42:59.527Z,1015.62
2023-03-22T09:43:59.510Z,1015.66
2023-03-22T09:44:59.507Z,1015.56
2023-03-22T09:45:59.537Z,1015.58
2023-03-22T09:46:59.502Z,1015.52
2023-03-22T09:47:59.566Z,1015.48
2023-03-22T09:48:59.506Z,1015.46
2023-03-22T09:49:59.507Z,1015.57
2023-03-22T09:50:59.503Z,1015.44
2023-03-22T09:51:59.544Z,1015.46
2023-03-22T09:52:59.514Z,1015.45
2023-03-22T09:53:59.501Z,1015.47
2023-03-22T09:54:59.504Z,1015.45
2023-03-22T09:55:59.491Z,1015.4
2023-03-22T09:56:59.512Z,1015.4
2023-03-22T09:57:59.517Z,1015.39
2023-03-22T09:58:59.490Z,1015.45
2023-03-22T09:59:59.510Z,1015.37
2023-03-22T10:00:59.644Z,1015.31
2023-03-22T10:01:59.620Z,1015.33
2023-03-22T10:02:59.518Z,1015.4
2023-03-22T10:03:59.540Z,1015.34
2023-03-22T10:04:59.520Z,1015.19
2023-03-22T10:05:59.489Z,1015.33
2023-03-22T10:06:59.483Z,1015.28
2023-03-22T10:07:59.532Z,1015.28
2023-03-22T10:08:59.504Z,1015.24
2023-03-22T10:09:59.507Z,1015.25
2023-03-22T10:10:59.505Z,1015.24
2023-03-22T10:11:59.532Z,1015.19
2023-03-22T10:12:59.524Z,1015.2
2023-03-22T10:13:59.501Z,1015.1
2023-03-22T10:14:59.501Z,1015.08
2023-03-22T10:15:59.620Z,1015.1
2023-03-22T10:16:59.506Z,1015.07
2023-03-22T10:17:59.521Z,1015.02
2023-03-22T10:18:59.497Z,1015.03
2023-03-22T10:19:59.493Z,1015.05
2023-03-22T10:20:59.511Z,1014.99
2023-03-22T10:21:59.507Z,1014.98
2023-03-22T10:22:59.526Z,1015.05
2023-03-22T10:23:59.508Z,1015.03
2023-03-22T10:24:59.501Z,1015.01
2023-03-22T10:25:59.509Z,1014.9
2023-03-22T10:26:59.514Z,1014.92
2023-03-22T10:27:59.538Z,1014.87
2023-03-22T10:29:00.119Z,1014.83
2023-03-22T10:29:59.505Z,1014.79
2023-03-22T10:30:59.568Z,1014.81
2023-03-22T10:31:59.507Z,1014.79
2023-03-22T10:32:59.522Z,1014.81
2023-03-22T10:33:59.507Z,1014.79
2023-03-22T10:34:59.486Z,1014.76
2023-03-22T10:35:59.572Z,1014.8
2023-03-22T10:36:59.507Z,1014.74
2023-03-22T10:37:59.516Z,1014.71
2023-03-22T10:38:59.507Z,1014.76
2023-03-22T10:39:59.507Z,1014.81
2023-03-22T10:40:59.513Z,1014.9
2023-03-22T10:41:59.557Z,1014.81
2023-03-22T10:42:59.521Z,1014.79
2023-03-22T10:43:59.515Z,1014.73
2023-03-22T10:44:59.505Z,1014.91
2023-03-22T10:45:59.502Z,1014.75
2023-03-22T10:46:59.679Z,1014.7
2023-03-22T10:47:59.637Z,1014.76
2023-03-22T10:48:59.564Z,1014.89
2023-03-22T10:49:59.503Z,1014.75
2023-03-22T10:50:59.514Z,1014.8
2023-03-22T10:51:59.508Z,1014.61
2023-03-22T10:52:59.517Z,1014.66
2023-03-22T10:53:59.515Z,1014.7
2023-03-22T10:55:02.438Z,1014.66
2023-03-22T10:55:59.527Z,1014.56
2023-03-22T10:56:59.521Z,1014.58
2023-03-22T10:57:59.531Z,1014.64
2023-03-22T10:58:59.505Z,1014.66
2023-03-22T10:59:59.513Z,1014.5
2023-03-22T11:00:59.699Z,1014.57
2023-03-22T11:01:59.636Z,1014.53
2023-03-22T11:02:59.605Z,1014.59
2023-03-22T11:03:59.499Z,1014.53
2023-03-22T11:04:59.518Z,1014.58
2023-03-22T11:05:59.510Z,1014.53
2023-03-22T11:06:59.504Z,1014.57
2023-03-22T11:07:59.529Z,1014.57
2023-03-22T11:08:59.511Z,1014.57
2023-03-22T11:09:59.514Z,1014.75
2023-03-22T11:10:59.573Z,1014.51
2023-03-22T11:11:59.522Z,1014.45
2023-03-22T11:12:59.519Z,1014.57
2023-03-22T11:13:59.521Z,1014.55
2023-03-22T11:14:59.511Z,1014.43
2023-03-22T11:15:59.518Z,1014.41
2023-03-22T11:16:59.527Z,1014.45
2023-03-22T11:17:59.590Z,1014.36
2023-03-22T11:18:59.510Z,1014.4
2023-03-22T11:19:59.527Z,1014.39
2023-03-22T11:20:59.533Z,1014.36
2023-03-22T11:21:59.517Z,1014.28
2023-03-22T11:22:59.516Z,1014.27
2023-03-22T11:23:59.496Z,1014.3
2023-03-22T11:24:59.502Z,1014.33
2023-03-22T11:25:59.533Z,1014.3
2023-03-22T11:26:59.531Z,1014.33
2023-03-22T11:27:59.514Z,1014.35
2023-03-22T11:28:59.511Z,1014.37
2023-03-22T11:29:59.528Z,1014.36
2023-03-22T11:30:59.505Z,1014.23
2023-03-22T11:31:59.587Z,1014.26
2023-03-22T11:32:59.568Z,1014.16
2023-03-22T11:33:59.510Z,1014.15
2023-03-22T11:34:59.511Z,1014.19
2023-03-22T11:35:59.547Z,1014.17
2023-03-22T11:36:59.529Z,1014.17
2023-03-22T11:37:59.517Z,1014.13
2023-03-22T11:38:59.508Z,1014.13
2023-03-22T11:39:59.513Z,1014.15
2023-03-22T11:40:59.521Z,1014.13
2023-03-22T11:41:59.530Z,1014.03
2023-03-22T11:42:59.515Z,1014.04
2023-03-22T11:43:59.504Z,1014.04
2023-03-22T11:44:59.510Z,1013.99
2023-03-22T11:45:59.539Z,1014.07
2023-03-22T11:46:59.503Z,1014.1
2023-03-22T11:47:59.583Z,1013.96
2023-03-22T11:49:01.198Z,1014.05
2023-03-22T11:49:59.543Z,1014.03
2023-03-22T11:50:59.517Z,1013.94
2023-03-22T11:51:59.522Z,1014
2023-03-22T11:52:59.525Z,1014
2023-03-22T11:53:59.524Z,1014.05
2023-03-22T11:54:59.522Z,1014.11
2023-03-22T11:55:59.507Z,1013.97
2023-03-22T11:56:59.516Z,1013.99
2023-03-22T11:57:59.532Z,1014.05
2023-03-22T11:58:59.546Z,1013.95
2023-03-22T11:59:59.516Z,1013.93
2023-03-22T12:00:59.523Z,1013.85
2023-03-22T12:01:59.530Z,1013.93
2023-03-22T12:02:59.648Z,1013.98
2023-03-22T12:03:59.545Z,1014.03
2023-03-22T12:04:59.567Z,1013.83
2023-03-22T12:05:59.528Z,1013.83
2023-03-22T12:06:59.518Z,1013.82
2023-03-22T12:07:59.527Z,1013.82
2023-03-22T12:08:59.516Z,1013.83
2023-03-22T12:10:00.267Z,1013.76